sensor_id;sensor_type;location;lat;lon;timestamp;P1;durP1;ratioP1;P2;durP2;ratioP2
41456;SDS011;27197;51.752;5.220;2022-10-16T00:01:45;3.58;;;1.95;;
41456;SDS011;27197;51.752;5.220;2022-10-16T00:04:16;3.33;;;2.00;;
41456;SDS011;27197;51.752;5.220;2022-10-16T00:06:45;4.33;;;2.30;;
41456;SDS011;27197;51.752;5.220;2022-10-16T00:09:14;4.58;;;1.72;;
41456;SDS011;27197;51.752;5.220;2022-10-16T00:11:44;4.85;;;2.05;;
41456;SDS011;27197;51.752;5.220;2022-10-16T00:14:12;5.42;;;1.62;;
41456;SDS011;27197;51.752;5.220;2022-10-16T00:16:40;5.70;;;2.05;;
41456;SDS011;27197;51.752;5.220;2022-10-16T00:19:09;3.83;;;2.08;;
41456;SDS011;27197;51.752;5.220;2022-10-16T00:21:38;4.50;;;2.05;;
41456;SDS011;27197;51.752;5.220;2022-10-16T00:24:07;4.90;;;1.85;;
41456;SDS011;27197;51.752;5.220;2022-10-16T00:26:40;2.80;;;1.87;;
41456;SDS011;27197;51.752;5.220;2022-10-16T00:29:09;3.30;;;2.02;;
41456;SDS011;27197;51.752;5.220;2022-10-16T00:31:38;4.95;;;2.10;;
41456;SDS011;27197;51.752;5.220;2022-10-16T00:34:07;6.25;;;2.42;;
41456;SDS011;27197;51.752;5.220;2022-10-16T00:36:36;3.65;;;2.00;;
41456;SDS011;27197;51.752;5.220;2022-10-16T00:39:05;3.25;;;1.80;;
41456;SDS011;27197;51.752;5.220;2022-10-16T00:41:34;4.90;;;1.80;;
41456;SDS011;27197;51.752;5.220;2022-10-16T00:44:40;3.33;;;2.08;;
41456;SDS011;27197;51.752;5.220;2022-10-16T00:46:41;4.30;;;2.62;;
41456;SDS011;27197;51.752;5.220;2022-10-16T00:49:12;4.58;;;2.30;;
41456;SDS011;27197;51.752;5.220;2022-10-16T00:51:47;3.52;;;2.08;;
41456;SDS011;27197;51.752;5.220;2022-10-16T00:54:21;2.98;;;1.75;;
41456;SDS011;27197;51.752;5.220;2022-10-16T00:56:49;3.00;;;1.80;;
41456;SDS011;27197;51.752;5.220;2022-10-16T00:59:40;3.52;;;1.98;;
41456;SDS011;27197;51.752;5.220;2022-10-16T01:02:08;3.20;;;1.93;;
41456;SDS011;27197;51.752;5.220;2022-10-16T01:04:38;3.83;;;1.80;;
41456;SDS011;27197;51.752;5.220;2022-10-16T01:07:16;4.30;;;2.17;;
41456;SDS011;27197;51.752;5.220;2022-10-16T01:12:18;5.75;;;2.85;;
41456;SDS011;27197;51.752;5.220;2022-10-16T01:14:46;3.35;;;1.70;;
41456;SDS011;27197;51.752;5.220;2022-10-16T01:25:29;3.50;;;1.80;;
41456;SDS011;27197;51.752;5.220;2022-10-16T01:27:48;3.77;;;1.62;;
41456;SDS011;27197;51.752;5.220;2022-10-16T01:30:25;3.62;;;1.80;;
41456;SDS011;27197;51.752;5.220;2022-10-16T01:32:59;3.65;;;1.80;;
41456;SDS011;27197;51.752;5.220;2022-10-16T01:38:02;3.55;;;2.08;;
41456;SDS011;27197;51.752;5.220;2022-10-16T01:40:30;2.72;;;1.62;;
41456;SDS011;27197;51.752;5.220;2022-10-16T01:43:01;3.02;;;1.60;;
41456;SDS011;27197;51.752;5.220;2022-10-16T01:45:31;3.92;;;1.90;;
41456;SDS011;27197;51.752;5.220;2022-10-16T01:48:04;3.77;;;1.90;;
41456;SDS011;27197;51.752;5.220;2022-10-16T01:50:34;4.53;;;1.90;;
41456;SDS011;27197;51.752;5.220;2022-10-16T01:53:04;3.50;;;1.65;;
41456;SDS011;27197;51.752;5.220;2022-10-16T01:55:33;3.58;;;1.85;;
41456;SDS011;27197;51.752;5.220;2022-10-16T01:58:02;2.10;;;1.30;;
41456;SDS011;27197;51.752;5.220;2022-10-16T02:00:33;3.12;;;1.77;;
41456;SDS011;27197;51.752;5.220;2022-10-16T02:03:05;2.90;;;1.50;;
41456;SDS011;27197;51.752;5.220;2022-10-16T02:05:55;4.20;;;1.80;;
41456;SDS011;27197;51.752;5.220;2022-10-16T02:08:03;3.05;;;1.45;;
41456;SDS011;27197;51.752;5.220;2022-10-16T02:10:34;2.77;;;1.35;;
41456;SDS011;27197;51.752;5.220;2022-10-16T02:15:42;4.00;;;1.50;;
41456;SDS011;27197;51.752;5.220;2022-10-16T02:18:15;3.22;;;1.67;;
41456;SDS011;27197;51.752;5.220;2022-10-16T02:23:19;2.85;;;1.55;;
41456;SDS011;27197;51.752;5.220;2022-10-16T02:25:48;2.67;;;1.42;;
41456;SDS011;27197;51.752;5.220;2022-10-16T02:28:22;4.03;;;1.40;;
41456;SDS011;27197;51.752;5.220;2022-10-16T02:31:02;2.35;;;1.30;;
41456;SDS011;27197;51.752;5.220;2022-10-16T02:33:22;2.40;;;1.32;;
41456;SDS011;27197;51.752;5.220;2022-10-16T02:35:51;2.15;;;1.50;;
41456;SDS011;27197;51.752;5.220;2022-10-16T02:38:21;3.25;;;1.40;;
41456;SDS011;27197;51.752;5.220;2022-10-16T02:40:50;2.83;;;1.70;;
41456;SDS011;27197;51.752;5.220;2022-10-16T02:43:18;3.30;;;1.80;;
41456;SDS011;27197;51.752;5.220;2022-10-16T02:45:48;2.70;;;1.40;;
41456;SDS011;27197;51.752;5.220;2022-10-16T02:48:17;2.25;;;1.32;;
41456;SDS011;27197;51.752;5.220;2022-10-16T02:50:45;3.05;;;1.25;;
41456;SDS011;27197;51.752;5.220;2022-10-16T02:53:14;2.45;;;1.40;;
41456;SDS011;27197;51.752;5.220;2022-10-16T02:55:43;2.75;;;1.10;;
41456;SDS011;27197;51.752;5.220;2022-10-16T02:58:12;2.10;;;1.17;;
41456;SDS011;27197;51.752;5.220;2022-10-16T03:00:42;2.22;;;1.22;;
41456;SDS011;27197;51.752;5.220;2022-10-16T03:03:11;1.95;;;1.35;;
41456;SDS011;27197;51.752;5.220;2022-10-16T03:05:43;2.45;;;1.32;;
41456;SDS011;27197;51.752;5.220;2022-10-16T03:08:12;3.77;;;1.32;;
41456;SDS011;27197;51.752;5.220;2022-10-16T03:10:43;3.05;;;1.37;;
41456;SDS011;27197;51.752;5.220;2022-10-16T03:13:12;3.30;;;1.70;;
41456;SDS011;27197;51.752;5.220;2022-10-16T03:15:41;3.22;;;1.42;;
41456;SDS011;27197;51.752;5.220;2022-10-16T03:18:10;4.17;;;1.32;;
41456;SDS011;27197;51.752;5.220;2022-10-16T03:20:39;3.52;;;1.60;;
41456;SDS011;27197;51.752;5.220;2022-10-16T03:23:11;2.05;;;1.32;;
41456;SDS011;27197;51.752;5.220;2022-10-16T03:25:40;2.40;;;1.20;;
41456;SDS011;27197;51.752;5.220;2022-10-16T03:28:09;3.58;;;1.30;;
41456;SDS011;27197;51.752;5.220;2022-10-16T03:30:37;2.40;;;1.30;;
41456;SDS011;27197;51.752;5.220;2022-10-16T03:33:06;2.12;;;1.22;;
41456;SDS011;27197;51.752;5.220;2022-10-16T03:35:34;1.92;;;1.17;;
41456;SDS011;27197;51.752;5.220;2022-10-16T03:38:03;2.00;;;1.20;;
41456;SDS011;27197;51.752;5.220;2022-10-16T03:40:31;1.50;;;0.88;;
41456;SDS011;27197;51.752;5.220;2022-10-16T03:43:01;2.58;;;1.15;;
41456;SDS011;27197;51.752;5.220;2022-10-16T03:45:30;3.92;;;1.45;;
41456;SDS011;27197;51.752;5.220;2022-10-16T03:47:58;3.47;;;1.40;;
41456;SDS011;27197;51.752;5.220;2022-10-16T03:50:27;3.92;;;1.27;;
41456;SDS011;27197;51.752;5.220;2022-10-16T03:53:00;4.85;;;1.20;;
41456;SDS011;27197;51.752;5.220;2022-10-16T03:55:28;1.62;;;1.22;;
41456;SDS011;27197;51.752;5.220;2022-10-16T03:57:56;3.47;;;1.02;;
41456;SDS011;27197;51.752;5.220;2022-10-16T04:00:26;2.25;;;1.22;;
41456;SDS011;27197;51.752;5.220;2022-10-16T04:02:56;1.98;;;1.17;;
41456;SDS011;27197;51.752;5.220;2022-10-16T04:05:24;2.83;;;1.37;;
41456;SDS011;27197;51.752;5.220;2022-10-16T04:07:53;1.45;;;1.00;;
41456;SDS011;27197;51.752;5.220;2022-10-16T04:10:24;2.37;;;1.10;;
41456;SDS011;27197;51.752;5.220;2022-10-16T04:12:52;3.60;;;1.25;;
41456;SDS011;27197;51.752;5.220;2022-10-16T04:15:22;1.98;;;1.20;;
41456;SDS011;27197;51.752;5.220;2022-10-16T04:17:52;2.17;;;1.02;;
41456;SDS011;27197;51.752;5.220;2022-10-16T04:20:21;2.08;;;1.10;;
41456;SDS011;27197;51.752;5.220;2022-10-16T04:22:52;3.67;;;0.95;;
41456;SDS011;27197;51.752;5.220;2022-10-16T04:25:20;2.58;;;1.10;;
41456;SDS011;27197;51.752;5.220;2022-10-16T04:27:49;1.98;;;1.32;;
41456;SDS011;27197;51.752;5.220;2022-10-16T04:30:17;3.17;;;1.30;;
41456;SDS011;27197;51.752;5.220;2022-10-16T04:32:51;2.05;;;1.10;;
41456;SDS011;27197;51.752;5.220;2022-10-16T04:35:18;2.90;;;1.07;;
41456;SDS011;27197;51.752;5.220;2022-10-16T04:37:49;3.15;;;1.25;;
41456;SDS011;27197;51.752;5.220;2022-10-16T04:40:16;1.80;;;1.00;;
41456;SDS011;27197;51.752;5.220;2022-10-16T04:42:45;3.67;;;1.80;;
41456;SDS011;27197;51.752;5.220;2022-10-16T04:45:14;1.75;;;1.40;;
41456;SDS011;27197;51.752;5.220;2022-10-16T04:47:42;3.25;;;2.00;;
41456;SDS011;27197;51.752;5.220;2022-10-16T04:50:11;2.02;;;1.30;;
41456;SDS011;27197;51.752;5.220;2022-10-16T04:52:40;4.35;;;1.77;;
41456;SDS011;27197;51.752;5.220;2022-10-16T04:55:10;2.45;;;1.35;;
41456;SDS011;27197;51.752;5.220;2022-10-16T04:57:42;2.50;;;1.25;;
41456;SDS011;27197;51.752;5.220;2022-10-16T05:00:10;3.95;;;1.75;;
41456;SDS011;27197;51.752;5.220;2022-10-16T05:02:38;4.20;;;2.17;;
41456;SDS011;27197;51.752;5.220;2022-10-16T05:05:11;2.30;;;1.50;;
41456;SDS011;27197;51.752;5.220;2022-10-16T05:07:38;2.52;;;1.22;;
41456;SDS011;27197;51.752;5.220;2022-10-16T05:10:07;3.30;;;1.55;;
41456;SDS011;27197;51.752;5.220;2022-10-16T05:12:36;2.42;;;1.25;;
41456;SDS011;27197;51.752;5.220;2022-10-16T05:15:05;3.77;;;2.47;;
41456;SDS011;27197;51.752;5.220;2022-10-16T05:17:34;3.50;;;2.40;;
41456;SDS011;27197;51.752;5.220;2022-10-16T05:20:04;5.17;;;3.20;;
41456;SDS011;27197;51.752;5.220;2022-10-16T05:22:32;2.22;;;1.60;;
41456;SDS011;27197;51.752;5.220;2022-10-16T05:25:01;3.65;;;3.33;;
41456;SDS011;27197;51.752;5.220;2022-10-16T05:27:30;3.37;;;2.75;;
41456;SDS011;27197;51.752;5.220;2022-10-16T05:30:01;3.35;;;1.67;;
41456;SDS011;27197;51.752;5.220;2022-10-16T05:32:30;5.15;;;2.60;;
41456;SDS011;27197;51.752;5.220;2022-10-16T05:34:59;3.67;;;2.35;;
41456;SDS011;27197;51.752;5.220;2022-10-16T05:37:27;4.35;;;3.10;;
41456;SDS011;27197;51.752;5.220;2022-10-16T05:39:57;3.87;;;1.27;;
41456;SDS011;27197;51.752;5.220;2022-10-16T05:42:27;2.60;;;1.12;;
41456;SDS011;27197;51.752;5.220;2022-10-16T05:44:56;3.92;;;1.22;;
41456;SDS011;27197;51.752;5.220;2022-10-16T05:47:25;5.17;;;3.33;;
41456;SDS011;27197;51.752;5.220;2022-10-16T05:49:54;3.52;;;2.35;;
41456;SDS011;27197;51.752;5.220;2022-10-16T05:52:21;5.03;;;2.30;;
41456;SDS011;27197;51.752;5.220;2022-10-16T05:54:50;2.33;;;1.30;;
41456;SDS011;27197;51.752;5.220;2022-10-16T05:57:20;3.92;;;1.20;;
41456;SDS011;27197;51.752;5.220;2022-10-16T05:59:50;3.05;;;1.50;;
41456;SDS011;27197;51.752;5.220;2022-10-16T06:02:19;3.02;;;1.22;;
41456;SDS011;27197;51.752;5.220;2022-10-16T06:04:48;4.40;;;1.30;;
41456;SDS011;27197;51.752;5.220;2022-10-16T06:07:17;2.62;;;1.25;;
41456;SDS011;27197;51.752;5.220;2022-10-16T06:09:50;3.52;;;1.17;;
41456;SDS011;27197;51.752;5.220;2022-10-16T06:12:19;3.77;;;1.17;;
41456;SDS011;27197;51.752;5.220;2022-10-16T06:14:47;4.03;;;1.32;;
41456;SDS011;27197;51.752;5.220;2022-10-16T06:17:16;3.98;;;1.15;;
41456;SDS011;27197;51.752;5.220;2022-10-16T06:19:44;3.30;;;1.25;;
41456;SDS011;27197;51.752;5.220;2022-10-16T06:22:18;2.60;;;1.40;;
41456;SDS011;27197;51.752;5.220;2022-10-16T06:24:46;2.20;;;1.20;;
41456;SDS011;27197;51.752;5.220;2022-10-16T06:27:15;2.17;;;1.05;;
41456;SDS011;27197;51.752;5.220;2022-10-16T06:29:44;3.20;;;1.12;;
41456;SDS011;27197;51.752;5.220;2022-10-16T06:32:17;3.33;;;1.02;;
41456;SDS011;27197;51.752;5.220;2022-10-16T06:34:47;3.50;;;1.60;;
41456;SDS011;27197;51.752;5.220;2022-10-16T06:37:18;2.98;;;1.22;;
41456;SDS011;27197;51.752;5.220;2022-10-16T06:39:48;5.20;;;1.45;;
41456;SDS011;27197;51.752;5.220;2022-10-16T06:42:18;2.83;;;1.22;;
41456;SDS011;27197;51.752;5.220;2022-10-16T06:44:46;4.08;;;1.60;;
41456;SDS011;27197;51.752;5.220;2022-10-16T06:47:15;4.40;;;1.55;;
41456;SDS011;27197;51.752;5.220;2022-10-16T06:49:46;2.72;;;1.20;;
41456;SDS011;27197;51.752;5.220;2022-10-16T06:52:14;3.35;;;1.55;;
41456;SDS011;27197;51.752;5.220;2022-10-16T06:54:43;5.85;;;1.50;;
41456;SDS011;27197;51.752;5.220;2022-10-16T06:57:12;2.95;;;1.10;;
41456;SDS011;27197;51.752;5.220;2022-10-16T06:59:41;3.22;;;1.40;;
41456;SDS011;27197;51.752;5.220;2022-10-16T07:02:10;2.12;;;1.35;;
41456;SDS011;27197;51.752;5.220;2022-10-16T07:04:39;2.80;;;1.45;;
41456;SDS011;27197;51.752;5.220;2022-10-16T07:07:08;3.55;;;1.80;;
41456;SDS011;27197;51.752;5.220;2022-10-16T07:09:39;3.17;;;1.80;;
41456;SDS011;27197;51.752;5.220;2022-10-16T07:12:07;3.80;;;1.60;;
41456;SDS011;27197;51.752;5.220;2022-10-16T07:14:36;3.65;;;2.42;;
41456;SDS011;27197;51.752;5.220;2022-10-16T07:17:05;4.25;;;2.33;;
41456;SDS011;27197;51.752;5.220;2022-10-16T07:19:34;3.10;;;1.37;;
41456;SDS011;27197;51.752;5.220;2022-10-16T07:22:03;8.68;;;3.08;;
41456;SDS011;27197;51.752;5.220;2022-10-16T07:24:31;1.82;;;1.12;;
41456;SDS011;27197;51.752;5.220;2022-10-16T07:26:58;5.03;;;3.20;;
41456;SDS011;27197;51.752;5.220;2022-10-16T07:29:26;3.17;;;2.35;;
41456;SDS011;27197;51.752;5.220;2022-10-16T07:31:54;4.15;;;2.90;;
41456;SDS011;27197;51.752;5.220;2022-10-16T07:34:23;5.85;;;2.92;;
41456;SDS011;27197;51.752;5.220;2022-10-16T07:36:52;4.15;;;2.65;;
41456;SDS011;27197;51.752;5.220;2022-10-16T07:39:20;7.78;;;3.65;;
41456;SDS011;27197;51.752;5.220;2022-10-16T07:41:52;4.95;;;2.80;;
41456;SDS011;27197;51.752;5.220;2022-10-16T07:44:20;5.25;;;3.10;;
41456;SDS011;27197;51.752;5.220;2022-10-16T07:46:49;5.95;;;2.30;;
41456;SDS011;27197;51.752;5.220;2022-10-16T07:49:17;4.37;;;2.47;;
41456;SDS011;27197;51.752;5.220;2022-10-16T07:51:48;4.55;;;2.12;;
41456;SDS011;27197;51.752;5.220;2022-10-16T07:54:16;6.05;;;3.02;;
41456;SDS011;27197;51.752;5.220;2022-10-16T07:56:45;3.05;;;2.00;;
41456;SDS011;27197;51.752;5.220;2022-10-16T07:59:14;6.47;;;2.00;;
41456;SDS011;27197;51.752;5.220;2022-10-16T08:01:43;3.98;;;2.12;;
41456;SDS011;27197;51.752;5.220;2022-10-16T08:04:12;5.30;;;1.87;;
41456;SDS011;27197;51.752;5.220;2022-10-16T08:06:41;3.40;;;1.85;;
41456;SDS011;27197;51.752;5.220;2022-10-16T08:09:12;3.25;;;1.65;;
41456;SDS011;27197;51.752;5.220;2022-10-16T08:11:41;4.92;;;1.50;;
41456;SDS011;27197;51.752;5.220;2022-10-16T08:14:10;4.62;;;1.65;;
41456;SDS011;27197;51.752;5.220;2022-10-16T08:16:40;4.17;;;1.20;;
41456;SDS011;27197;51.752;5.220;2022-10-16T08:19:09;3.22;;;1.60;;
41456;SDS011;27197;51.752;5.220;2022-10-16T08:21:37;2.98;;;1.52;;
41456;SDS011;27197;51.752;5.220;2022-10-16T08:24:04;5.50;;;1.62;;
41456;SDS011;27197;51.752;5.220;2022-10-16T08:26:33;5.05;;;1.60;;
41456;SDS011;27197;51.752;5.220;2022-10-16T08:29:02;4.00;;;1.70;;
41456;SDS011;27197;51.752;5.220;2022-10-16T08:31:31;2.35;;;1.52;;
41456;SDS011;27197;51.752;5.220;2022-10-16T08:34:03;3.77;;;1.85;;
41456;SDS011;27197;51.752;5.220;2022-10-16T08:36:30;3.80;;;2.10;;
41456;SDS011;27197;51.752;5.220;2022-10-16T08:39:03;3.83;;;1.62;;
41456;SDS011;27197;51.752;5.220;2022-10-16T08:44:06;4.17;;;1.87;;
41456;SDS011;27197;51.752;5.220;2022-10-16T08:49:16;4.15;;;1.67;;
41456;SDS011;27197;51.752;5.220;2022-10-16T08:51:47;4.55;;;1.70;;
41456;SDS011;27197;51.752;5.220;2022-10-16T08:54:26;3.45;;;1.67;;
41456;SDS011;27197;51.752;5.220;2022-10-16T08:56:55;6.75;;;1.60;;
41456;SDS011;27197;51.752;5.220;2022-10-16T08:59:22;6.50;;;1.70;;
41456;SDS011;27197;51.752;5.220;2022-10-16T09:01:53;7.40;;;1.65;;
41456;SDS011;27197;51.752;5.220;2022-10-16T09:09:52;6.80;;;2.22;;
41456;SDS011;27197;51.752;5.220;2022-10-16T09:12:19;3.72;;;1.82;;
41456;SDS011;27197;51.752;5.220;2022-10-16T09:22:38;6.03;;;1.80;;
41456;SDS011;27197;51.752;5.220;2022-10-16T09:25:15;12.85;;;3.10;;
41456;SDS011;27197;51.752;5.220;2022-10-16T09:27:42;7.85;;;1.87;;
41456;SDS011;27197;51.752;5.220;2022-10-16T09:30:17;4.72;;;1.60;;
41456;SDS011;27197;51.752;5.220;2022-10-16T09:32:47;6.42;;;1.75;;
41456;SDS011;27197;51.752;5.220;2022-10-16T09:35:17;8.58;;;2.02;;
41456;SDS011;27197;51.752;5.220;2022-10-16T09:37:47;9.98;;;1.95;;
41456;SDS011;27197;51.752;5.220;2022-10-16T09:40:30;4.67;;;2.02;;
41456;SDS011;27197;51.752;5.220;2022-10-16T09:43:12;8.63;;;1.75;;
41456;SDS011;27197;51.752;5.220;2022-10-16T09:45:38;8.00;;;2.17;;
41456;SDS011;27197;51.752;5.220;2022-10-16T09:48:11;10.60;;;2.05;;
41456;SDS011;27197;51.752;5.220;2022-10-16T09:50:41;6.25;;;2.10;;
41456;SDS011;27197;51.752;5.220;2022-10-16T09:53:12;9.78;;;2.00;;
41456;SDS011;27197;51.752;5.220;2022-10-16T09:55:50;8.40;;;2.20;;
41456;SDS011;27197;51.752;5.220;2022-10-16T09:58:24;4.53;;;1.62;;
41456;SDS011;27197;51.752;5.220;2022-10-16T10:00:52;8.18;;;1.87;;
41456;SDS011;27197;51.752;5.220;2022-10-16T10:05:58;6.22;;;1.80;;
41456;SDS011;27197;51.752;5.220;2022-10-16T10:08:27;7.30;;;1.98;;
41456;SDS011;27197;51.752;5.220;2022-10-16T10:10:55;7.78;;;1.80;;
41456;SDS011;27197;51.752;5.220;2022-10-16T10:13:24;4.45;;;1.67;;
41456;SDS011;27197;51.752;5.220;2022-10-16T10:15:53;6.05;;;1.80;;
41456;SDS011;27197;51.752;5.220;2022-10-16T10:18:22;6.15;;;1.77;;
41456;SDS011;27197;51.752;5.220;2022-10-16T10:20:58;8.33;;;2.87;;
41456;SDS011;27197;51.752;5.220;2022-10-16T10:23:27;7.92;;;1.87;;
41456;SDS011;27197;51.752;5.220;2022-10-16T10:28:58;6.95;;;1.77;;
41456;SDS011;27197;51.752;5.220;2022-10-16T10:31:26;10.05;;;2.90;;
41456;SDS011;27197;51.752;5.220;2022-10-16T10:33:55;8.60;;;2.17;;
41456;SDS011;27197;51.752;5.220;2022-10-16T10:36:30;5.50;;;1.72;;
41456;SDS011;27197;51.752;5.220;2022-10-16T10:39:09;6.30;;;1.90;;
41456;SDS011;27197;51.752;5.220;2022-10-16T10:52:34;7.08;;;2.35;;
41456;SDS011;27197;51.752;5.220;2022-10-16T11:06:28;7.78;;;1.70;;
41456;SDS011;27197;51.752;5.220;2022-10-16T11:14:05;12.85;;;2.58;;
41456;SDS011;27197;51.752;5.220;2022-10-16T11:16:37;7.15;;;1.70;;
41456;SDS011;27197;51.752;5.220;2022-10-16T11:21:37;11.10;;;1.90;;
41456;SDS011;27197;51.752;5.220;2022-10-16T11:24:11;9.40;;;1.80;;
41456;SDS011;27197;51.752;5.220;2022-10-16T11:26:34;7.80;;;1.70;;
41456;SDS011;27197;51.752;5.220;2022-10-16T11:29:04;9.60;;;2.02;;
41456;SDS011;27197;51.752;5.220;2022-10-16T11:31:41;5.97;;;2.00;;
41456;SDS011;27197;51.752;5.220;2022-10-16T11:34:22;6.50;;;1.60;;
41456;SDS011;27197;51.752;5.220;2022-10-16T11:36:51;12.88;;;1.80;;
41456;SDS011;27197;51.752;5.220;2022-10-16T11:39:30;8.08;;;1.80;;
41456;SDS011;27197;51.752;5.220;2022-10-16T11:42:03;10.53;;;2.10;;
41456;SDS011;27197;51.752;5.220;2022-10-16T11:49:55;9.50;;;2.08;;
41456;SDS011;27197;51.752;5.220;2022-10-16T11:52:25;9.03;;;2.20;;
41456;SDS011;27197;51.752;5.220;2022-10-16T11:54:57;10.93;;;2.33;;
41456;SDS011;27197;51.752;5.220;2022-10-16T11:57:40;6.58;;;2.05;;
41456;SDS011;27197;51.752;5.220;2022-10-16T12:00:19;7.87;;;1.32;;
41456;SDS011;27197;51.752;5.220;2022-10-16T12:05:33;7.20;;;2.22;;
41456;SDS011;27197;51.752;5.220;2022-10-16T12:08:10;9.05;;;1.82;;
41456;SDS011;27197;51.752;5.220;2022-10-16T12:10:39;8.30;;;2.15;;
41456;SDS011;27197;51.752;5.220;2022-10-16T12:16:05;7.28;;;1.50;;
41456;SDS011;27197;51.752;5.220;2022-10-16T12:18:35;12.33;;;1.77;;
41456;SDS011;27197;51.752;5.220;2022-10-16T12:21:07;9.15;;;1.70;;
41456;SDS011;27197;51.752;5.220;2022-10-16T12:23:54;7.75;;;1.67;;
41456;SDS011;27197;51.752;5.220;2022-10-16T12:26:08;7.50;;;1.77;;
41456;SDS011;27197;51.752;5.220;2022-10-16T12:28:37;5.12;;;1.47;;
41456;SDS011;27197;51.752;5.220;2022-10-16T12:31:09;9.20;;;1.87;;
41456;SDS011;27197;51.752;5.220;2022-10-16T12:33:43;7.30;;;2.22;;
41456;SDS011;27197;51.752;5.220;2022-10-16T12:36:16;10.53;;;2.30;;
41456;SDS011;27197;51.752;5.220;2022-10-16T12:38:48;6.78;;;2.17;;
41456;SDS011;27197;51.752;5.220;2022-10-16T12:41:26;9.28;;;2.05;;
41456;SDS011;27197;51.752;5.220;2022-10-16T12:43:55;6.47;;;1.60;;
41456;SDS011;27197;51.752;5.220;2022-10-16T12:51:41;7.03;;;1.40;;
41456;SDS011;27197;51.752;5.220;2022-10-16T12:54:15;7.25;;;2.30;;
41456;SDS011;27197;51.752;5.220;2022-10-16T12:59:49;7.22;;;1.85;;
41456;SDS011;27197;51.752;5.220;2022-10-16T13:02:39;7.45;;;1.82;;
41456;SDS011;27197;51.752;5.220;2022-10-16T13:12:40;9.33;;;1.70;;
41456;SDS011;27197;51.752;5.220;2022-10-16T13:20:29;8.93;;;2.05;;
41456;SDS011;27197;51.752;5.220;2022-10-16T13:25:40;7.53;;;1.60;;
41456;SDS011;27197;51.752;5.220;2022-10-16T13:28:10;4.37;;;1.22;;
41456;SDS011;27197;51.752;5.220;2022-10-16T13:30:50;9.83;;;1.87;;
41456;SDS011;27197;51.752;5.220;2022-10-16T13:33:24;7.42;;;1.60;;
41456;SDS011;27197;51.752;5.220;2022-10-16T13:35:51;8.45;;;1.95;;
41456;SDS011;27197;51.752;5.220;2022-10-16T13:38:21;5.92;;;1.77;;
41456;SDS011;27197;51.752;5.220;2022-10-16T13:40:56;7.33;;;1.40;;
41456;SDS011;27197;51.752;5.220;2022-10-16T13:43:47;4.75;;;1.57;;
41456;SDS011;27197;51.752;5.220;2022-10-16T13:45:59;6.20;;;1.57;;
41456;SDS011;27197;51.752;5.220;2022-10-16T13:48:28;5.37;;;1.47;;
41456;SDS011;27197;51.752;5.220;2022-10-16T13:51:03;6.50;;;1.60;;
41456;SDS011;27197;51.752;5.220;2022-10-16T13:53:35;5.92;;;1.70;;
41456;SDS011;27197;51.752;5.220;2022-10-16T13:56:04;7.30;;;1.62;;
41456;SDS011;27197;51.752;5.220;2022-10-16T13:58:33;6.95;;;1.52;;
41456;SDS011;27197;51.752;5.220;2022-10-16T14:01:03;5.62;;;1.42;;
41456;SDS011;27197;51.752;5.220;2022-10-16T14:03:32;6.50;;;1.60;;
41456;SDS011;27197;51.752;5.220;2022-10-16T14:06:02;8.35;;;1.65;;
41456;SDS011;27197;51.752;5.220;2022-10-16T14:08:36;7.35;;;1.45;;
41456;SDS011;27197;51.752;5.220;2022-10-16T14:11:08;7.75;;;1.52;;
41456;SDS011;27197;51.752;5.220;2022-10-16T14:13:42;4.78;;;1.35;;
41456;SDS011;27197;51.752;5.220;2022-10-16T14:16:09;10.18;;;1.57;;
41456;SDS011;27197;51.752;5.220;2022-10-16T14:18:38;6.42;;;1.37;;
41456;SDS011;27197;51.752;5.220;2022-10-16T14:21:11;5.47;;;1.70;;
41456;SDS011;27197;51.752;5.220;2022-10-16T14:23:38;8.03;;;2.12;;
41456;SDS011;27197;51.752;5.220;2022-10-16T14:26:12;6.00;;;1.90;;
41456;SDS011;27197;51.752;5.220;2022-10-16T14:28:39;6.62;;;1.77;;
41456;SDS011;27197;51.752;5.220;2022-10-16T14:33:50;5.35;;;1.45;;
41456;SDS011;27197;51.752;5.220;2022-10-16T14:39:01;6.53;;;1.52;;
41456;SDS011;27197;51.752;5.220;2022-10-16T14:41:29;5.70;;;1.75;;
41456;SDS011;27197;51.752;5.220;2022-10-16T14:44:04;4.80;;;1.40;;
41456;SDS011;27197;51.752;5.220;2022-10-16T14:46:37;6.17;;;1.95;;
41456;SDS011;27197;51.752;5.220;2022-10-16T14:51:41;6.95;;;1.70;;
41456;SDS011;27197;51.752;5.220;2022-10-16T14:54:16;5.70;;;1.45;;
41456;SDS011;27197;51.752;5.220;2022-10-16T14:59:17;5.73;;;1.23;;
41456;SDS011;27197;51.752;5.220;2022-10-16T15:01:46;4.37;;;1.20;;
41456;SDS011;27197;51.752;5.220;2022-10-16T15:04:16;6.53;;;1.65;;
41456;SDS011;27197;51.752;5.220;2022-10-16T15:06:45;7.92;;;1.70;;
41456;SDS011;27197;51.752;5.220;2022-10-16T15:09:13;3.50;;;1.62;;
41456;SDS011;27197;51.752;5.220;2022-10-16T15:11:44;4.05;;;1.22;;
41456;SDS011;27197;51.752;5.220;2022-10-16T15:14:16;5.50;;;1.40;;
41456;SDS011;27197;51.752;5.220;2022-10-16T15:16:44;3.70;;;1.30;;
41456;SDS011;27197;51.752;5.220;2022-10-16T15:19:12;5.42;;;1.17;;
41456;SDS011;27197;51.752;5.220;2022-10-16T15:21:40;5.90;;;1.40;;
41456;SDS011;27197;51.752;5.220;2022-10-16T15:26:36;3.85;;;1.20;;
41456;SDS011;27197;51.752;5.220;2022-10-16T15:29:05;7.12;;;1.55;;
41456;SDS011;27197;51.752;5.220;2022-10-16T15:31:34;6.17;;;2.10;;
41456;SDS011;27197;51.752;5.220;2022-10-16T15:34:02;5.80;;;1.60;;
41456;SDS011;27197;51.752;5.220;2022-10-16T15:36:33;5.78;;;2.15;;
41456;SDS011;27197;51.752;5.220;2022-10-16T15:39:03;6.00;;;1.40;;
41456;SDS011;27197;51.752;5.220;2022-10-16T15:41:31;5.95;;;1.42;;
41456;SDS011;27197;51.752;5.220;2022-10-16T15:44:01;4.72;;;1.42;;
41456;SDS011;27197;51.752;5.220;2022-10-16T15:46:30;3.95;;;1.30;;
41456;SDS011;27197;51.752;5.220;2022-10-16T15:49:00;6.50;;;1.30;;
41456;SDS011;27197;51.752;5.220;2022-10-16T15:51:30;4.97;;;1.70;;
41456;SDS011;27197;51.752;5.220;2022-10-16T15:54:00;7.55;;;1.87;;
41456;SDS011;27197;51.752;5.220;2022-10-16T15:56:30;5.55;;;2.10;;
41456;SDS011;27197;51.752;5.220;2022-10-16T15:58:59;6.40;;;2.08;;
41456;SDS011;27197;51.752;5.220;2022-10-16T16:01:31;3.60;;;1.30;;
41456;SDS011;27197;51.752;5.220;2022-10-16T16:03:58;5.35;;;1.45;;
41456;SDS011;27197;51.752;5.220;2022-10-16T16:06:27;6.12;;;1.10;;
41456;SDS011;27197;51.752;5.220;2022-10-16T16:08:57;4.20;;;1.82;;
41456;SDS011;27197;51.752;5.220;2022-10-16T16:11:31;4.80;;;1.75;;
41456;SDS011;27197;51.752;5.220;2022-10-16T16:13:59;5.50;;;1.40;;
41456;SDS011;27197;51.752;5.220;2022-10-16T16:16:32;4.03;;;1.85;;
41456;SDS011;27197;51.752;5.220;2022-10-16T16:19:06;4.60;;;1.42;;
41456;SDS011;27197;51.752;5.220;2022-10-16T16:21:35;3.12;;;1.25;;
41456;SDS011;27197;51.752;5.220;2022-10-16T16:24:03;2.72;;;1.20;;
41456;SDS011;27197;51.752;5.220;2022-10-16T16:26:33;5.08;;;1.55;;
41456;SDS011;27197;51.752;5.220;2022-10-16T16:29:03;7.67;;;2.20;;
41456;SDS011;27197;51.752;5.220;2022-10-16T16:31:32;3.42;;;1.50;;
41456;SDS011;27197;51.752;5.220;2022-10-16T16:34:03;4.25;;;1.45;;
41456;SDS011;27197;51.752;5.220;2022-10-16T16:36:32;2.52;;;1.17;;
41456;SDS011;27197;51.752;5.220;2022-10-16T16:39:00;3.87;;;1.20;;
41456;SDS011;27197;51.752;5.220;2022-10-16T16:41:30;5.22;;;1.30;;
41456;SDS011;27197;51.752;5.220;2022-10-16T16:44:05;5.40;;;1.60;;
41456;SDS011;27197;51.752;5.220;2022-10-16T16:46:33;2.98;;;1.30;;
41456;SDS011;27197;51.752;5.220;2022-10-16T16:49:03;4.58;;;1.40;;
41456;SDS011;27197;51.752;5.220;2022-10-16T16:51:34;4.12;;;1.50;;
41456;SDS011;27197;51.752;5.220;2022-10-16T16:54:04;5.85;;;1.32;;
41456;SDS011;27197;51.752;5.220;2022-10-16T16:56:33;3.85;;;1.42;;
41456;SDS011;27197;51.752;5.220;2022-10-16T16:59:02;2.62;;;1.20;;
41456;SDS011;27197;51.752;5.220;2022-10-16T17:01:30;4.33;;;1.30;;
41456;SDS011;27197;51.752;5.220;2022-10-16T17:03:59;6.05;;;1.55;;
41456;SDS011;27197;51.752;5.220;2022-10-16T17:06:31;4.35;;;1.50;;